Avoca, Iowa
Current Conditions -  °F | °C
As of 10:15 AM on Wednesday 26 Nov 2014 (Local Time) from KHNR Reporting Station
Haze Haze  
Wind Chill: 21°   Ceiling: 800
Heat Index: 32°   Visibility: 6mi
Dew Point: 32°   Wind: 16mph
Humidity: 100%   Direction: 340°NNW
Pressure: 30"   Gusts: 23mph
Location:  41.48°N, 95.34°W
Report Text: KHNR 261615Z AUTO 34014G20KT 6SM BR OVC008 00/00 A3000 RMK AO2
Loading
Personal Weather Stations






























Interactive Weather Map New forecast layout! Learn more

10-Day Weather Forecast

Advertisements
Track Severe Weather on mobile